Time;durP1;ratioP1;P1;durP2;ratioP2;P2;SDS_P1;SDS_P2;PMS_P1;PMS_P2;Temp;Humidity;BMP_temperature;BMP_pressure;BME280_temperature;BME280_humidity;BME280_pressure;Samples;Min_cycle;Max_cycle;Signal;HPM_P1;HPM_P2
2022/05/28 00:01:21;;;;;;;9.88;1.60;;;12.60;99.90;;;;;;5070846;28;20079;-49
2022/05/28 00:03:48;;;;;;;9.95;1.73;;;12.60;99.90;;;;;;5070217;28;20372;-48
2022/05/28 00:06:19;;;;;;;8.07;1.00;;;12.60;99.90;;;;;;5069081;28;20400;-51
2022/05/28 00:08:45;;;;;;;7.63;1.35;;;12.60;99.90;;;;;;5070790;28;20048;-52
2022/05/28 00:11:22;;;;;;;7.22;1.60;;;12.60;99.90;;;;;;5070700;28;20502;-51
2022/05/28 00:13:49;;;;;;;9.30;1.42;;;12.60;99.90;;;;;;5070219;28;20395;-51
2022/05/28 00:16:16;;;;;;;6.45;1.20;;;12.50;99.90;;;;;;5052058;28;20044;-49
2022/05/28 00:18:41;;;;;;;7.75;1.02;;;12.50;99.90;;;;;;5070257;28;20067;-49
2022/05/28 00:21:09;;;;;;;5.28;1.00;;;12.50;99.90;;;;;;5069861;28;20036;-51
2022/05/28 00:23:37;;;;;;;8.23;1.35;;;12.50;99.90;;;;;;5070882;28;20368;-50
2022/05/28 00:26:04;;;;;;;7.43;1.30;;;12.40;99.90;;;;;;5070645;28;20544;-47
2022/05/28 00:28:30;;;;;;;7.45;1.13;;;12.40;99.90;;;;;;5070471;28;20039;-49
2022/05/28 00:30:56;;;;;;;7.10;1.25;;;12.40;99.90;;;;;;5070764;28;20114;-49
2022/05/28 00:33:23;;;;;;;9.02;1.15;;;12.50;99.90;;;;;;5069785;28;20036;-50
2022/05/28 00:35:50;;;;;;;8.45;1.45;;;12.40;99.90;;;;;;5070445;28;20043;-49
2022/05/28 00:38:16;;;;;;;5.28;1.02;;;12.40;99.90;;;;;;5069942;28;20063;-48
2022/05/28 00:40:49;;;;;;;7.40;1.10;;;12.40;99.90;;;;;;5070425;28;20043;-49
2022/05/28 00:43:15;;;;;;;9.15;1.20;;;12.10;99.90;;;;;;5070691;28;20036;-48
2022/05/28 00:45:43;;;;;;;12.60;1.63;;;12.00;99.90;;;;;;5052443;28;20490;-49
2022/05/28 00:48:11;;;;;;;5.43;1.13;;;11.90;99.90;;;;;;5070278;28;20032;-50
2022/05/28 00:50:38;;;;;;;6.32;1.58;;;11.90;99.90;;;;;;5070012;28;20048;-51
2022/05/28 00:53:05;;;;;;;7.22;1.30;;;11.80;99.90;;;;;;5067778;28;20573;-50
2022/05/28 00:55:33;;;;;;;8.23;1.20;;;11.90;99.90;;;;;;5070450;28;20522;-50
2022/05/28 00:58:03;;;;;;;9.15;1.38;;;11.80;99.90;;;;;;5052259;28;20029;-51
2022/05/28 01:00:28;;;;;;;6.57;1.20;;;11.80;99.90;;;;;;5070315;28;20032;-51
2022/05/28 01:02:57;;;;;;;7.80;1.23;;;11.80;99.90;;;;;;5070262;28;20498;-50
2022/05/28 01:05:28;;;;;;;8.90;1.85;;;11.70;99.90;;;;;;5069357;28;20085;-50
2022/05/28 01:08:06;;;;;;;7.07;1.30;;;11.60;99.90;;;;;;5070235;28;20472;-53
2022/05/28 01:10:46;;;;;;;6.15;1.20;;;11.40;99.90;;;;;;5070670;28;20036;-49
2022/05/28 01:13:33;;;;;;;9.20;1.30;;;11.10;99.90;;;;;;5073727;28;20069;-48
2022/05/28 01:16:09;;;;;;;8.88;1.33;;;11.10;99.90;;;;;;5073996;28;20471;-48
2022/05/28 01:18:41;;;;;;;7.15;1.55;;;10.80;99.90;;;;;;5074060;28;20127;-51
2022/05/28 01:21:13;;;;;;;6.80;1.85;;;10.90;99.90;;;;;;5073963;28;20188;-46
2022/05/28 01:23:50;;;;;;;5.70;1.35;;;10.70;99.90;;;;;;5073956;28;20071;-49
2022/05/28 01:26:21;;;;;;;7.38;1.05;;;10.70;99.90;;;;;;5073936;28;20036;-48
2022/05/28 01:28:52;;;;;;;9.45;1.70;;;10.70;99.90;;;;;;5073772;28;20098;-50
2022/05/28 01:31:20;;;;;;;7.32;1.20;;;10.70;99.90;;;;;;5072413;28;20033;-49
2022/05/28 01:33:47;;;;;;;8.68;1.40;;;10.60;99.90;;;;;;5073146;28;20089;-50
2022/05/28 01:36:16;;;;;;;7.45;1.27;;;10.60;99.90;;;;;;5050928;28;20036;-47
2022/05/28 01:38:43;;;;;;;6.90;1.23;;;10.50;99.90;;;;;;5054372;28;20047;-47
2022/05/28 01:41:10;;;;;;;10.73;1.42;;;10.50;99.90;;;;;;5073643;28;20124;-50
2022/05/28 01:43:38;;;;;;;10.55;1.35;;;10.40;99.90;;;;;;5073509;28;20051;-48
2022/05/28 01:46:05;;;;;;;5.97;1.17;;;10.40;99.90;;;;;;5073217;28;20077;-47
2022/05/28 01:48:31;;;;;;;10.88;1.55;;;10.20;99.90;;;;;;5073550;28;20390;-48
2022/05/28 01:50:58;;;;;;;10.40;1.75;;;10.20;99.90;;;;;;5073364;28;20032;-49
2022/05/28 01:56:11;;;;;;;7.30;1.33;;;10.10;99.90;;;;;;5073400;28;20090;-46
2022/05/28 01:58:36;;;;;;;9.63;1.20;;;10.00;99.90;;;;;;5073213;28;20048;-48
2022/05/28 02:01:05;;;;;;;14.88;1.50;;;10.00;99.90;;;;;;5073432;28;20480;-50
2022/05/28 02:03:33;;;;;;;8.38;1.30;;;10.00;99.90;;;;;;5072456;28;20045;-48
2022/05/28 02:05:59;;;;;;;8.60;1.40;;;9.90;99.90;;;;;;5073048;28;20432;-47
2022/05/28 02:08:28;;;;;;;11.40;1.40;;;9.90;99.90;;;;;;5073080;28;20032;-47
2022/05/28 02:11:08;;;;;;;9.02;1.30;;;10.00;99.90;;;;;;5054900;28;20052;-48
2022/05/28 02:13:59;;;;;;;10.50;1.67;;;10.00;99.90;;;;;;5072807;28;20131;-50
2022/05/28 02:16:40;;;;;;;10.63;2.10;;;10.00;99.90;;;;;;5073102;28;20119;-50
2022/05/28 02:19:13;;;;;;;8.10;1.25;;;9.90;99.90;;;;;;5072785;28;20054;-48
2022/05/28 02:21:46;;;;;;;10.80;1.55;;;9.80;99.90;;;;;;5070023;28;20529;-50
2022/05/28 02:24:17;;;;;;;11.85;1.33;;;9.90;99.90;;;;;;5071912;28;20036;-47
2022/05/28 02:26:50;;;;;;;8.80;1.50;;;9.80;99.90;;;;;;5072927;28;20051;-47
2022/05/28 02:29:17;;;;;;;6.50;1.45;;;9.70;99.90;;;;;;5072823;28;20047;-47
2022/05/28 02:31:45;;;;;;;10.00;1.20;;;9.70;99.90;;;;;;5072618;28;20048;-47
2022/05/28 02:34:11;;;;;;;6.75;1.70;;;9.70;99.90;;;;;;5072183;28;20052;-50
2022/05/28 02:36:38;;;;;;;8.02;1.58;;;9.70;99.90;;;;;;5072566;28;20067;-49
2022/05/28 02:39:04;;;;;;;7.75;1.42;;;9.60;99.90;;;;;;5054155;28;20036;-47
2022/05/28 02:41:29;;;;;;;9.07;1.45;;;9.60;99.90;;;;;;5072320;28;20051;-48
2022/05/28 02:43:55;;;;;;;9.40;1.60;;;9.50;99.90;;;;;;5072228;28;20486;-46
2022/05/28 02:46:21;;;;;;;11.25;1.48;;;9.50;99.90;;;;;;5072137;28;20040;-49
2022/05/28 02:48:47;;;;;;;8.57;1.85;;;9.40;99.90;;;;;;5072380;28;20110;-48
2022/05/28 02:51:21;;;;;;;7.57;1.50;;;9.40;99.90;;;;;;5054097;28;20033;-49
2022/05/28 02:53:48;;;;;;;9.57;1.50;;;9.40;99.90;;;;;;5071934;28;20119;-47
2022/05/28 02:56:14;;;;;;;11.00;1.25;;;9.40;99.90;;;;;;5072099;28;20091;-49
2022/05/28 02:58:40;;;;;;;9.40;1.48;;;9.30;99.90;;;;;;5072000;28;20090;-48
2022/05/28 03:01:23;;;;;;;10.57;1.60;;;9.30;99.90;;;;;;5072230;28;20227;-47
2022/05/28 03:03:48;;;;;;;11.65;1.45;;;9.20;99.90;;;;;;5053302;28;20123;-48
2022/05/28 03:06:14;;;;;;;9.55;1.52;;;9.10;99.90;;;;;;5070424;28;20448;-50
2022/05/28 03:08:40;;;;;;;10.13;1.30;;;9.20;99.90;;;;;;5071715;28;20383;-48
2022/05/28 03:11:05;;;;;;;12.45;2.08;;;9.20;99.90;;;;;;5071350;28;20044;-53
2022/05/28 03:13:31;;;;;;;9.00;1.42;;;9.10;99.90;;;;;;5071936;28;20139;-48
2022/05/28 03:15:57;;;;;;;8.35;1.60;;;9.10;99.90;;;;;;5071565;28;20443;-51
2022/05/28 03:18:22;;;;;;;13.57;1.73;;;9.10;99.90;;;;;;5071597;28;20033;-49
2022/05/28 03:20:48;;;;;;;12.80;1.70;;;9.10;99.90;;;;;;5071198;28;20072;-47
2022/05/28 03:23:14;;;;;;;11.85;1.60;;;9.10;99.90;;;;;;5071689;28;20032;-47
2022/05/28 03:25:39;;;;;;;9.32;1.40;;;9.00;99.90;;;;;;5071436;28;20044;-48
2022/05/28 03:28:05;;;;;;;9.57;1.58;;;9.10;99.90;;;;;;5071584;28;20032;-48
2022/05/28 03:30:31;;;;;;;12.98;1.75;;;9.10;99.90;;;;;;5071329;28;20036;-47
2022/05/28 03:32:56;;;;;;;8.65;1.48;;;9.10;99.90;;;;;;5053324;28;20528;-46
2022/05/28 03:35:22;;;;;;;11.77;1.95;;;9.10;99.90;;;;;;5070514;28;20383;-48
2022/05/28 03:37:47;;;;;;;8.60;1.50;;;9.10;99.90;;;;;;5071468;28;20067;-46
2022/05/28 03:40:13;;;;;;;16.05;1.67;;;9.10;99.90;;;;;;5071134;28;20441;-47
2022/05/28 03:42:39;;;;;;;12.80;2.17;;;9.00;99.90;;;;;;5070754;28;20051;-48
2022/05/28 03:45:05;;;;;;;10.45;1.80;;;9.00;99.90;;;;;;5071087;28;20037;-48
2022/05/28 03:47:31;;;;;;;9.10;1.42;;;9.10;99.90;;;;;;5070771;28;20075;-49
2022/05/28 03:49:57;;;;;;;9.50;1.52;;;9.00;99.90;;;;;;5070848;28;20045;-48
2022/05/28 03:52:23;;;;;;;7.80;1.50;;;9.00;99.90;;;;;;5069194;28;20044;-49
2022/05/28 03:54:49;;;;;;;11.07;1.90;;;9.10;99.90;;;;;;5053343;28;20479;-51
2022/05/28 03:57:22;;;;;;;12.98;1.65;;;9.00;99.90;;;;;;5070727;28;20479;-51
2022/05/28 03:59:48;;;;;;;10.73;1.85;;;9.10;99.90;;;;;;5071007;28;20361;-49
2022/05/28 04:02:14;;;;;;;8.65;1.73;;;9.10;99.90;;;;;;5070066;28;20043;-50
2022/05/28 04:04:40;;;;;;;8.23;1.70;;;9.10;99.90;;;;;;5070383;28;20540;-48
2022/05/28 04:07:05;;;;;;;6.95;1.50;;;9.10;99.90;;;;;;5071046;28;20066;-48
2022/05/28 04:09:31;;;;;;;10.93;1.85;;;9.20;99.90;;;;;;5070488;28;20029;-47
2022/05/28 04:11:57;;;;;;;8.18;1.65;;;9.30;99.90;;;;;;5070576;28;20068;-47
2022/05/28 04:14:23;;;;;;;10.93;1.52;;;9.30;99.90;;;;;;5052549;28;20032;-48
2022/05/28 04:16:48;;;;;;;10.25;1.85;;;9.30;99.90;;;;;;5070923;28;20110;-49
2022/05/28 04:19:14;;;;;;;9.82;1.67;;;9.30;99.90;;;;;;5052769;28;20040;-50
2022/05/28 04:21:40;;;;;;;12.70;1.88;;;9.30;99.90;;;;;;5070955;28;20078;-51
2022/05/28 04:24:06;;;;;;;10.45;1.73;;;9.40;99.90;;;;;;5070770;28;20049;-47
2022/05/28 04:26:32;;;;;;;8.20;1.42;;;9.40;99.90;;;;;;5052543;28;20038;-48
2022/05/28 04:28:58;;;;;;;14.90;2.50;;;9.40;99.90;;;;;;5070852;28;20029;-51
2022/05/28 04:31:24;;;;;;;11.10;1.60;;;9.40;99.90;;;;;;5070747;28;20036;-50
2022/05/28 04:33:49;;;;;;;10.48;1.42;;;9.40;99.90;;;;;;5069860;28;20043;-49
2022/05/28 04:36:15;;;;;;;11.27;1.77;;;9.30;99.90;;;;;;5068215;28;20115;-48
2022/05/28 04:38:41;;;;;;;12.13;1.77;;;9.40;99.90;;;;;;5052185;28;20045;-47
2022/05/28 04:41:07;;;;;;;8.38;1.75;;;9.40;99.90;;;;;;5070437;28;20470;-50
2022/05/28 04:43:33;;;;;;;12.70;1.80;;;9.50;99.90;;;;;;5070581;28;20049;-47
2022/05/28 04:45:59;;;;;;;10.68;1.75;;;9.50;99.90;;;;;;5073182;28;20558;-49
2022/05/28 04:48:25;;;;;;;12.93;2.28;;;9.60;99.90;;;;;;5072488;28;20037;-48
2022/05/28 04:50:50;;;;;;;8.77;1.77;;;9.70;99.90;;;;;;5073904;28;20033;-47
2022/05/28 04:53:16;;;;;;;12.68;1.73;;;9.70;99.90;;;;;;5074249;28;20047;-47
2022/05/28 04:55:44;;;;;;;11.48;1.45;;;9.70;99.90;;;;;;5074365;28;20048;-47
2022/05/28 04:58:12;;;;;;;11.85;1.77;;;9.70;99.90;;;;;;5073962;28;20039;-48
2022/05/28 05:00:39;;;;;;;12.05;2.03;;;9.70;99.90;;;;;;5056036;28;20040;-47
2022/05/28 05:03:05;;;;;;;11.63;1.70;;;9.70;99.90;;;;;;5073881;28;20045;-48
2022/05/28 05:05:30;;;;;;;15.60;2.25;;;9.70;99.90;;;;;;5073673;28;20041;-49
2022/05/28 05:07:56;;;;;;;15.15;2.13;;;9.70;99.90;;;;;;5074347;28;20029;-48
2022/05/28 05:10:22;;;;;;;11.57;2.58;;;9.70;99.90;;;;;;5074207;28;20045;-49
2022/05/28 05:12:48;;;;;;;14.90;2.42;;;9.80;99.90;;;;;;5073629;28;20562;-49
2022/05/28 05:15:14;;;;;;;14.30;2.08;;;9.90;99.90;;;;;;5074018;28;20049;-48
2022/05/28 05:17:39;;;;;;;12.48;2.08;;;10.00;99.90;;;;;;5074054;28;20063;-47
2022/05/28 05:20:07;;;;;;;11.55;2.17;;;10.20;99.90;;;;;;5073887;28;20036;-49
2022/05/28 05:22:32;;;;;;;12.27;2.20;;;10.20;99.90;;;;;;5071735;28;20044;-50
2022/05/28 05:24:59;;;;;;;12.63;2.20;;;10.30;99.90;;;;;;5073814;28;20467;-49
2022/05/28 05:27:24;;;;;;;14.25;2.25;;;10.40;99.90;;;;;;5073936;28;20040;-48
2022/05/28 05:29:50;;;;;;;11.05;2.05;;;10.40;99.90;;;;;;5073526;28;20041;-48
2022/05/28 05:32:16;;;;;;;17.65;2.50;;;10.50;99.90;;;;;;5053775;28;20144;-51
2022/05/28 05:34:44;;;;;;;18.63;2.15;;;10.60;99.90;;;;;;5073170;28;20550;-48
2022/05/28 05:37:10;;;;;;;18.48;1.92;;;10.70;99.90;;;;;;5073413;28;20115;-48
2022/05/28 05:39:35;;;;;;;15.18;2.75;;;10.70;99.90;;;;;;5055493;28;20128;-48
2022/05/28 05:42:01;;;;;;;8.85;2.20;;;10.80;99.90;;;;;;5073641;28;20044;-48
2022/05/28 05:44:27;;;;;;;13.98;2.30;;;10.80;99.90;;;;;;5073378;28;20054;-47
2022/05/28 05:46:52;;;;;;;10.18;1.70;;;10.90;99.90;;;;;;5073541;28;20050;-47
2022/05/28 05:49:18;;;;;;;12.90;2.08;;;10.90;99.90;;;;;;5073429;28;20068;-49
2022/05/28 05:51:46;;;;;;;13.88;2.10;;;11.10;99.90;;;;;;5073152;28;20090;-48
2022/05/28 05:54:13;;;;;;;13.75;2.10;;;11.10;99.90;;;;;;5072848;28;20037;-48
2022/05/28 05:56:38;;;;;;;10.95;2.13;;;11.20;99.90;;;;;;5072363;28;20112;-47
2022/05/28 05:59:04;;;;;;;12.88;2.22;;;11.20;99.90;;;;;;5055500;28;20475;-49
2022/05/28 06:01:30;;;;;;;14.35;2.38;;;11.30;99.90;;;;;;5073231;28;20119;-48
2022/05/28 06:03:56;;;;;;;12.73;2.42;;;11.30;99.90;;;;;;5072519;28;20068;-52
2022/05/28 06:06:22;;;;;;;10.50;2.13;;;11.40;99.90;;;;;;5070585;28;20075;-51
2022/05/28 06:08:48;;;;;;;13.02;2.13;;;11.40;99.90;;;;;;5072751;28;20036;-51
2022/05/28 06:11:14;;;;;;;13.65;2.20;;;11.40;99.90;;;;;;5071590;28;20460;-49
2022/05/28 06:13:40;;;;;;;12.27;2.30;;;11.50;99.90;;;;;;5070816;28;20293;-51
2022/05/28 06:16:06;;;;;;;15.65;2.35;;;11.60;99.90;;;;;;5066721;28;20101;-48
2022/05/28 06:18:32;;;;;;;16.77;2.03;;;11.60;99.90;;;;;;5072781;28;20407;-48
2022/05/28 06:20:59;;;;;;;11.88;2.30;;;11.70;99.90;;;;;;5063327;28;20115;-49
2022/05/28 06:23:25;;;;;;;12.55;2.20;;;11.70;99.90;;;;;;5063076;28;20075;-52
2022/05/28 06:25:51;;;;;;;15.45;2.17;;;11.60;99.90;;;;;;5063543;28;20060;-48
2022/05/28 06:28:17;;;;;;;9.73;1.70;;;11.70;99.90;;;;;;5064842;28;20043;-49
2022/05/28 06:30:44;;;;;;;11.63;2.58;;;11.80;99.90;;;;;;5046309;28;20029;-48
2022/05/28 06:33:11;;;;;;;13.98;2.22;;;11.80;99.90;;;;;;5064579;28;20097;-48
2022/05/28 06:35:38;;;;;;;14.93;2.55;;;11.80;99.90;;;;;;5063529;28;20047;-51
2022/05/28 06:38:04;;;;;;;9.43;1.98;;;11.90;99.90;;;;;;5063235;28;20032;-49
2022/05/28 06:40:31;;;;;;;9.98;2.25;;;11.90;99.90;;;;;;5064807;28;20046;-50
2022/05/28 06:42:57;;;;;;;12.13;1.70;;;12.00;99.90;;;;;;5063556;28;20037;-48
2022/05/28 06:45:24;;;;;;;11.45;2.40;;;12.00;99.90;;;;;;5064046;28;20052;-50
2022/05/28 06:47:50;;;;;;;8.63;1.80;;;12.10;99.90;;;;;;5062806;28;20380;-49
2022/05/28 06:53:03;;;;;;;15.63;2.20;;;12.20;99.90;;;;;;5063234;28;20037;-48
2022/05/28 06:55:29;;;;;;;15.35;2.10;;;12.10;99.90;;;;;;5061793;28;20119;-47
2022/05/28 06:57:55;;;;;;;12.60;2.47;;;12.20;99.90;;;;;;5053714;28;20135;-52
2022/05/28 07:00:21;;;;;;;11.05;2.30;;;12.20;99.90;;;;;;5051535;28;20020;-51
2022/05/28 07:02:46;;;;;;;18.30;2.72;;;12.20;99.90;;;;;;5058652;28;20124;-54
2022/05/28 07:05:14;;;;;;;13.20;1.75;;;12.20;99.90;;;;;;5044120;28;20539;-52
2022/05/28 07:07:40;;;;;;;10.88;2.00;;;12.10;99.90;;;;;;5065792;28;20043;-52
2022/05/28 07:10:07;;;;;;;14.90;2.10;;;12.00;99.90;;;;;;5066191;28;20471;-51
2022/05/28 07:12:33;;;;;;;12.55;2.30;;;11.90;99.90;;;;;;5063998;28;20048;-49
2022/05/28 07:14:58;;;;;;;12.07;2.42;;;11.80;99.90;;;;;;5062464;28;20036;-50
2022/05/28 07:17:24;;;;;;;13.00;2.50;;;11.70;99.90;;;;;;5068294;28;20444;-50
2022/05/28 07:19:50;;;;;;;12.93;2.35;;;11.80;99.90;;;;;;5067714;28;20115;-52
2022/05/28 07:22:17;;;;;;;11.70;1.92;;;12.10;99.90;;;;;;5047039;28;20459;-50
2022/05/28 07:24:43;;;;;;;11.95;2.17;;;12.40;99.90;;;;;;5060659;28;20049;-47
2022/05/28 07:27:11;;;;;;;14.48;2.15;;;12.70;99.90;;;;;;5066055;28;20398;-49
2022/05/28 07:29:37;;;;;;;13.95;2.20;;;12.60;99.90;;;;;;5064722;28;20044;-53
2022/05/28 07:32:03;;;;;;;21.50;2.35;;;12.50;99.90;;;;;;5057316;28;20044;-49
2022/05/28 07:34:29;;;;;;;13.18;1.98;;;12.50;99.90;;;;;;5062830;28;20079;-51
2022/05/28 07:36:54;;;;;;;11.43;1.90;;;12.40;99.90;;;;;;5063961;28;21001;-49
2022/05/28 07:39:20;;;;;;;13.10;2.33;;;12.30;99.90;;;;;;5065134;28;20033;-47
2022/05/28 07:41:46;;;;;;;17.50;2.70;;;12.40;99.90;;;;;;5057764;28;20116;-50
2022/05/28 07:44:11;;;;;;;10.30;1.75;;;12.70;99.90;;;;;;5058691;28;20048;-45
2022/05/28 07:46:37;;;;;;;11.43;2.22;;;12.90;99.90;;;;;;5060091;28;20056;-45
2022/05/28 07:49:04;;;;;;;10.45;1.85;;;13.20;99.90;;;;;;5067994;28;20387;-50
2022/05/28 07:51:30;;;;;;;12.90;2.00;;;13.20;99.90;;;;;;5064642;28;20048;-51
2022/05/28 07:53:57;;;;;;;14.48;2.53;;;13.10;99.90;;;;;;5062868;28;20051;-49
2022/05/28 07:56:23;;;;;;;11.88;2.17;;;12.70;99.90;;;;;;5065599;28;20048;-47
2022/05/28 07:58:54;;;;;;;13.85;2.35;;;12.70;99.90;;;;;;5064679;28;20029;-47
2022/05/28 08:01:25;;;;;;;9.90;2.00;;;12.60;99.90;;;;;;5064378;28;20143;-45
2022/05/28 08:03:51;;;;;;;13.88;2.35;;;12.50;99.90;;;;;;5060426;28;20040;-47
2022/05/28 08:06:18;;;;;;;8.90;1.83;;;12.60;99.90;;;;;;5067551;28;20045;-46
2022/05/28 08:08:44;;;;;;;15.40;2.20;;;12.80;99.90;;;;;;5066398;28;20077;-47
2022/05/28 08:11:10;;;;;;;10.18;1.90;;;13.00;99.90;;;;;;5064650;28;20045;-47
2022/05/28 08:13:36;;;;;;;14.20;2.13;;;13.20;99.90;;;;;;5061722;28;20677;-47
2022/05/28 08:16:03;;;;;;;11.90;2.17;;;13.30;99.90;;;;;;5065209;28;20040;-45
2022/05/28 08:18:29;;;;;;;9.10;1.90;;;13.20;99.90;;;;;;5065100;28;20563;-48
2022/05/28 08:23:43;;;;;;;8.85;1.80;;;13.20;99.90;;;;;;5060906;28;20209;-48
2022/05/28 08:26:11;;;;;;;11.50;2.28;;;13.30;99.90;;;;;;5066208;28;20047;-49
2022/05/28 08:28:38;;;;;;;9.48;1.65;;;13.50;99.90;;;;;;5065807;28;20041;-46
2022/05/28 08:31:04;;;;;;;7.97;1.75;;;13.70;99.90;;;;;;5064974;28;20479;-46
2022/05/28 08:33:30;;;;;;;14.13;1.88;;;13.70;99.90;;;;;;5062930;28;20493;-46
2022/05/28 08:35:56;;;;;;;11.32;2.10;;;13.70;99.90;;;;;;5063591;28;20044;-48
2022/05/28 08:38:24;;;;;;;12.63;2.00;;;13.60;99.90;;;;;;5065787;28;20033;-47
2022/05/28 08:41:03;;;;;;;9.52;2.00;;;13.40;99.90;;;;;;5061832;28;20119;-48
2022/05/28 08:44:00;;;;;;;14.35;1.90;;;13.30;99.90;;;;;;5061243;28;20044;-47
2022/05/28 08:46:28;;;;;;;11.15;2.35;;;13.50;99.90;;;;;;5053966;28;20055;-50
2022/05/28 08:48:56;;;;;;;10.88;2.53;;;13.80;99.90;;;;;;5066505;28;20048;-48
2022/05/28 08:51:41;;;;;;;14.40;2.33;;;13.60;99.90;;;;;;5063594;28;20056;-49
2022/05/28 08:54:31;;;;;;;11.27;1.83;;;13.40;99.90;;;;;;5062831;28;20046;-49
2022/05/28 08:57:03;;;;;;;14.27;1.75;;;13.40;99.90;;;;;;5048853;28;20078;-50
2022/05/28 08:59:37;;;;;;;9.93;1.92;;;13.60;99.90;;;;;;5067651;28;20041;-48
2022/05/28 09:02:10;;;;;;;9.23;1.85;;;14.00;99.90;;;;;;5067956;28;20093;-48
2022/05/28 09:04:40;;;;;;;12.25;2.00;;;14.10;99.90;;;;;;5065367;28;20163;-47
2022/05/28 09:07:10;;;;;;;12.48;2.10;;;13.80;99.90;;;;;;5066165;28;20044;-48
2022/05/28 09:09:46;;;;;;;7.15;1.65;;;13.70;99.90;;;;;;5061670;28;20072;-50
2022/05/28 09:12:45;;;;;;;14.32;2.30;;;14.00;99.90;;;;;;5060610;28;20052;-52
2022/05/28 09:15:12;;;;;;;10.35;1.88;;;14.40;99.90;;;;;;5064621;28;20045;-50
2022/05/28 09:17:44;;;;;;;9.98;1.75;;;14.20;99.90;;;;;;5061336;28;20044;-49
2022/05/28 09:20:16;;;;;;;9.52;1.65;;;14.00;99.90;;;;;;5062264;28;20379;-50
2022/05/28 09:22:42;;;;;;;9.65;1.88;;;13.80;99.90;;;;;;5060098;28;20037;-48
2022/05/28 09:25:09;;;;;;;9.95;2.15;;;13.70;99.90;;;;;;5065700;28;20546;-48
2022/05/28 09:27:44;;;;;;;12.27;2.00;;;13.80;99.90;;;;;;5065804;28;20094;-49
2022/05/28 09:30:40;;;;;;;9.48;1.90;;;14.40;99.90;;;;;;5062037;28;20037;-52
2022/05/28 09:33:25;;;;;;;10.40;1.77;;;14.80;99.90;;;;;;5064934;28;20519;-49
2022/05/28 09:35:57;;;;;;;10.60;1.88;;;14.50;99.90;;;;;;5069649;28;20278;-50
2022/05/28 09:38:36;;;;;;;11.70;1.88;;;14.20;99.90;;;;;;5062729;28;20143;-47
2022/05/28 09:41:22;;;;;;;10.77;2.03;;;14.00;99.90;;;;;;5064409;28;20048;-48
2022/05/28 09:44:00;;;;;;;11.05;1.92;;;14.00;99.90;;;;;;5020808;28;20052;-49
2022/05/28 09:46:36;;;;;;;13.88;2.35;;;14.00;99.90;;;;;;5070044;28;20047;-50
2022/05/28 09:49:20;;;;;;;11.63;2.00;;;14.10;99.90;;;;;;5062902;28;20052;-48
2022/05/28 09:52:09;;;;;;;9.85;2.45;;;14.10;99.90;;;;;;5066402;28;20040;-50
2022/05/28 09:54:36;;;;;;;13.23;2.17;;;14.10;99.90;;;;;;5054637;28;20048;-47
2022/05/28 09:57:25;;;;;;;10.07;1.60;;;14.10;99.90;;;;;;5071596;28;20565;-48
2022/05/28 09:59:56;;;;;;;15.10;2.83;;;14.00;99.90;;;;;;5070764;28;20055;-49
2022/05/28 10:02:43;;;;;;;9.57;1.88;;;14.00;99.90;;;;;;5073383;28;20051;-49
2022/05/28 10:05:16;;;;;;;12.32;1.92;;;14.50;99.90;;;;;;5070047;28;20047;-47
2022/05/28 10:07:46;;;;;;;15.60;2.00;;;15.20;99.90;;;;;;5072321;28;20051;-46
2022/05/28 10:10:32;;;;;;;9.30;1.83;;;15.30;99.90;;;;;;5073027;28;20047;-50
2022/05/28 10:13:20;;;;;;;10.52;2.05;;;15.60;99.90;;;;;;5071612;28;20088;-51
2022/05/28 10:16:04;;;;;;;9.70;2.00;;;15.70;99.90;;;;;;5072245;28;20397;-52
2022/05/28 10:18:38;;;;;;;11.15;2.15;;;15.20;99.90;;;;;;5072760;28;20039;-50
2022/05/28 10:21:31;;;;;;;7.38;1.50;;;14.80;99.90;;;;;;5066876;28;20062;-48
2022/05/28 10:24:02;;;;;;;9.23;1.90;;;14.70;99.90;;;;;;5070079;28;20032;-48
2022/05/28 10:26:36;;;;;;;10.25;1.80;;;14.70;99.90;;;;;;5072753;28;20503;-49
2022/05/28 10:29:16;;;;;;;9.55;1.48;;;14.60;99.90;;;;;;5067048;28;20044;-50
2022/05/28 10:31:46;;;;;;;9.60;2.08;;;15.00;99.90;;;;;;5063584;28;20050;-50
2022/05/28 10:34:29;;;;;;;10.40;1.83;;;14.70;99.90;;;;;;5065848;28;20045;-50
2022/05/28 10:37:10;;;;;;;17.92;2.42;;;14.40;99.90;;;;;;5057533;28;20224;-49
2022/05/28 10:39:37;;;;;;;14.35;1.92;;;13.90;99.90;;;;;;5055816;28;20033;-50
2022/05/28 10:42:04;;;;;;;10.65;1.88;;;13.90;99.90;;;;;;5060013;28;20040;-51
2022/05/28 10:44:31;;;;;;;14.95;2.28;;;13.80;99.90;;;;;;5058208;28;20495;-49
2022/05/28 10:47:35;;;;;;;14.38;2.20;;;13.80;99.90;;;;;;5060361;28;20051;-52
2022/05/28 10:50:24;;;;;;;14.23;2.28;;;13.90;99.90;;;;;;5059799;28;20167;-52
2022/05/28 10:53:11;;;;;;;10.85;1.90;;;14.20;99.90;;;;;;5061106;28;20055;-49
2022/05/28 10:55:48;;;;;;;11.95;2.30;;;14.30;99.90;;;;;;5065902;28;20037;-51
2022/05/28 10:58:23;;;;;;;9.75;2.10;;;14.10;99.90;;;;;;5062021;28;20037;-47
2022/05/28 11:00:57;;;;;;;18.45;3.00;;;14.10;99.90;;;;;;5058624;28;20143;-47
2022/05/28 11:03:50;;;;;;;10.05;2.10;;;14.00;99.90;;;;;;5056155;28;20511;-47
2022/05/28 11:06:55;;;;;;;12.82;2.55;;;14.20;99.90;;;;;;5058002;28;20040;-49
2022/05/28 11:09:49;;;;;;;13.43;2.42;;;14.10;99.90;;;;;;5060913;28;20170;-52
2022/05/28 11:12:45;;;;;;;11.23;1.83;;;14.10;99.90;;;;;;5060452;28;20069;-50
2022/05/28 11:15:10;;;;;;;13.15;2.42;;;14.20;99.90;;;;;;5042228;28;20090;-49
2022/05/28 11:18:11;;;;;;;13.23;2.10;;;14.70;99.90;;;;;;5043385;28;20044;-52
2022/05/28 11:20:44;;;;;;;11.90;2.25;;;15.60;99.90;;;;;;5061387;28;20049;-48
2022/05/28 11:23:16;;;;;;;9.88;1.80;;;15.40;99.90;;;;;;5060464;28;20399;-49
2022/05/28 11:26:00;;;;;;;11.93;2.13;;;15.40;99.90;;;;;;5059960;28;20041;-52
2022/05/28 11:28:28;;;;;;;10.82;1.90;;;15.20;99.90;;;;;;5059175;28;20072;-47
2022/05/28 11:31:03;;;;;;;13.55;2.15;;;15.40;99.90;;;;;;5061083;28;20383;-49
2022/05/28 11:33:37;;;;;;;11.20;2.00;;;15.20;99.90;;;;;;5059219;28;20045;-51
2022/05/28 11:36:02;;;;;;;;;;;14.90;99.90;;;;;;5065318;28;20051;-53
2022/05/28 11:38:51;;;;;;;13.20;1.90;;;14.70;99.90;;;;;;5061862;28;19920;-49
2022/05/28 11:41:47;;;;;;;8.98;1.83;;;14.70;99.90;;;;;;5060588;28;20044;-46
2022/05/28 11:44:44;;;;;;;12.50;2.22;;;15.50;99.90;;;;;;5061470;28;20533;-49
2022/05/28 11:47:36;;;;;;;11.20;1.73;;;16.00;99.90;;;;;;5059334;28;20562;-47
2022/05/28 11:53:18;;;;;;;14.80;2.10;;;15.10;99.90;;;;;;5057494;28;20113;-48
2022/05/28 11:55:46;;;;;;;11.43;2.00;;;14.80;99.90;;;;;;5060159;28;20040;-50
2022/05/28 11:58:20;;;;;;;9.05;1.70;;;15.20;99.90;;;;;;5064299;28;20084;-52
2022/05/28 12:01:01;;;;;;;13.68;2.03;;;15.60;99.90;;;;;;5063138;28;20044;-47
2022/05/28 12:03:28;;;;;;;8.77;1.70;;;16.20;99.90;;;;;;5067072;28;20113;-48
2022/05/28 12:06:12;;;;;;;10.18;1.80;;;16.20;99.90;;;;;;5068924;28;20616;-46
2022/05/28 12:08:43;;;;;;;10.73;1.48;;;15.60;99.90;;;;;;5069317;28;20040;-49
2022/05/28 12:11:21;;;;;;;11.40;1.63;;;16.10;99.90;;;;;;5069852;28;20040;-49
2022/05/28 12:13:49;;;;;;;7.25;1.42;;;16.40;99.90;;;;;;5069401;28;20052;-49
2022/05/28 12:16:22;;;;;;;12.85;1.70;;;16.40;99.90;;;;;;5069047;28;20090;-50
2022/05/28 12:19:00;;;;;;;9.25;1.48;;;16.60;99.90;;;;;;5067235;28;20115;-47
2022/05/28 12:21:28;;;;;;;10.70;1.48;;;16.80;99.90;;;;;;5069248;28;20044;-46
2022/05/28 12:24:05;;;;;;;12.65;2.35;;;17.20;99.90;;;;;;5067460;28;20102;-46
2022/05/28 12:26:59;;;;;;;10.38;1.67;;;16.90;99.90;;;;;;5067733;28;20427;-49
2022/05/28 12:29:34;;;;;;;6.95;1.55;;;17.10;99.90;;;;;;5063052;28;20459;-51
2022/05/28 12:32:22;;;;;;;9.90;1.73;;;17.10;99.70;;;;;;5050472;28;20043;-51
2022/05/28 12:35:02;;;;;;;6.70;1.40;;;17.50;99.90;;;;;;5061072;28;20051;-48
2022/05/28 12:37:34;;;;;;;8.65;1.65;;;17.70;99.20;;;;;;5069263;28;20042;-49
2022/05/28 12:40:28;;;;;;;10.73;1.75;;;18.10;98.80;;;;;;5069241;28;20040;-48
2022/05/28 12:42:58;;;;;;;13.27;1.80;;;18.20;98.50;;;;;;5070057;28;20041;-48
2022/05/28 12:45:23;;;;;;;11.30;1.58;;;17.30;99.90;;;;;;5069817;28;20036;-49
2022/05/28 12:47:49;;;;;;;12.85;2.00;;;16.70;99.90;;;;;;5069772;28;20070;-47
2022/05/28 12:50:30;;;;;;;9.02;1.70;;;16.70;99.90;;;;;;5052007;28;20063;-48
2022/05/28 12:53:04;;;;;;;9.98;1.40;;;17.30;99.90;;;;;;5051741;28;20040;-47
2022/05/28 12:55:38;;;;;;;10.00;1.45;;;17.70;99.50;;;;;;5070034;28;20033;-48
2022/05/28 12:58:24;;;;;;;9.52;1.48;;;17.70;98.00;;;;;;5070036;28;20036;-50
2022/05/28 13:00:57;;;;;;;10.30;1.95;;;17.40;99.80;;;;;;5070070;28;20036;-47
2022/05/28 13:03:31;;;;;;;10.88;1.67;;;17.30;99.90;;;;;;5069984;28;20093;-50
2022/05/28 13:06:19;;;;;;;9.80;1.90;;;16.50;99.90;;;;;;5070389;28;20051;-48
2022/05/28 13:08:59;;;;;;;12.07;1.85;;;16.20;99.90;;;;;;5067428;28;20503;-51
2022/05/28 13:11:40;;;;;;;11.00;2.08;;;15.90;99.90;;;;;;5067077;28;20070;-48
2022/05/28 13:14:29;;;;;;;9.18;1.70;;;15.70;99.90;;;;;;5063069;28;20044;-52